Time;durP1;ratioP1;P1;durP2;ratioP2;P2;SDS_P1;SDS_P2;PMS_P1;PMS_P2;Temp;Humidity;BMP_temperature;BMP_pressure;BME280_temperature;BME280_humidity;BME280_pressure;Samples;Min_cycle;Max_cycle;Signal;HPM_P1;HPM_P2
2021/12/09 00:01:20;;;;;;;5.50;3.67;;;2.40;99.90;;;;;;5037711;28;20207;-82
2021/12/09 00:03:50;;;;;;;6.00;3.38;;;2.40;99.90;;;;;;5037721;28;20269;-84
2021/12/09 00:06:21;;;;;;;4.45;3.50;;;2.30;99.90;;;;;;5037830;28;20618;-85
2021/12/09 00:08:48;;;;;;;5.32;3.03;;;2.20;99.90;;;;;;5038433;28;20198;-85
2021/12/09 00:11:15;;;;;;;3.50;3.10;;;2.20;99.90;;;;;;5041626;28;20206;-84
2021/12/09 00:13:42;;;;;;;3.38;3.13;;;2.20;99.90;;;;;;5043995;28;20195;-84
2021/12/09 00:16:08;;;;;;;4.30;3.10;;;2.20;99.90;;;;;;5043007;28;20207;-85
2021/12/09 00:18:35;;;;;;;5.32;3.13;;;2.20;99.90;;;;;;5039436;28;20202;-85
2021/12/09 00:21:04;;;;;;;5.45;3.80;;;2.10;99.90;;;;;;5039340;28;20205;-85
2021/12/09 00:23:30;;;;;;;3.60;3.40;;;2.00;99.90;;;;;;5039290;28;20215;-85
2021/12/09 00:25:57;;;;;;;5.25;3.10;;;2.00;99.90;;;;;;5036884;28;20206;-85
2021/12/09 00:28:24;;;;;;;5.30;2.83;;;2.00;99.90;;;;;;5036462;28;20695;-85
2021/12/09 00:30:52;;;;;;;5.97;3.50;;;2.00;99.90;;;;;;5036845;28;20207;-84
2021/12/09 00:38:40;;;;;;;4.53;4.22;;;1.90;99.90;;;;;;5054350;28;20213;-80
2021/12/09 00:41:09;;;;;;;5.15;3.83;;;1.90;99.90;;;;;;5055771;28;20304;-79
2021/12/09 00:43:37;;;;;;;6.15;4.25;;;1.90;99.90;;;;;;5045304;28;20222;-80
2021/12/09 00:46:05;;;;;;;6.07;4.63;;;2.00;99.90;;;;;;5037373;28;20209;-81
2021/12/09 00:48:33;;;;;;;4.75;3.95;;;2.00;99.90;;;;;;5049951;28;20206;-80
2021/12/09 00:51:00;;;;;;;5.57;4.32;;;2.10;99.90;;;;;;5059831;28;20206;-79
2021/12/09 00:53:27;;;;;;;6.30;5.32;;;2.10;99.90;;;;;;5059571;28;20198;-81
2021/12/09 00:55:56;;;;;;;5.00;4.65;;;2.20;99.90;;;;;;5059567;28;20206;-81
2021/12/09 00:58:23;;;;;;;8.05;5.20;;;2.30;99.90;;;;;;5059846;28;20697;-81
2021/12/09 01:00:50;;;;;;;10.27;5.50;;;2.40;99.90;;;;;;5059668;28;20201;-81
2021/12/09 01:03:17;;;;;;;8.50;6.47;;;2.40;99.90;;;;;;5059956;28;20226;-81
2021/12/09 01:05:45;;;;;;;6.40;5.90;;;2.40;99.90;;;;;;5059915;28;20223;-81
2021/12/09 01:08:13;;;;;;;6.85;5.70;;;2.60;99.90;;;;;;5059015;28;20211;-79
2021/12/09 01:10:39;;;;;;;7.70;6.32;;;2.60;99.90;;;;;;5059732;28;20207;-81
2021/12/09 01:13:08;;;;;;;7.35;6.65;;;2.70;99.90;;;;;;5059159;28;20199;-81
2021/12/09 01:15:36;;;;;;;6.10;5.43;;;2.80;99.90;;;;;;5060104;28;20234;-81
2021/12/09 01:18:03;;;;;;;6.93;6.32;;;2.80;99.90;;;;;;5059393;28;20201;-81
2021/12/09 01:20:30;;;;;;;8.27;7.05;;;2.80;99.90;;;;;;5058938;28;20215;-81
2021/12/09 01:22:58;;;;;;;7.07;6.45;;;2.90;99.90;;;;;;5059147;28;20221;-81
2021/12/09 01:25:27;;;;;;;6.57;5.97;;;3.10;99.90;;;;;;5059030;28;20238;-81
2021/12/09 01:27:57;;;;;;;9.57;6.85;;;3.20;99.90;;;;;;5059103;28;20214;-81
2021/12/09 01:30:25;;;;;;;6.63;5.90;;;3.20;99.90;;;;;;5058853;28;20260;-81
2021/12/09 01:32:54;;;;;;;7.60;6.38;;;3.10;99.90;;;;;;5059287;28;20251;-79
2021/12/09 01:35:24;;;;;;;7.03;6.43;;;3.20;99.90;;;;;;5058946;28;20233;-81
2021/12/09 01:37:54;;;;;;;7.40;6.80;;;3.30;99.90;;;;;;5059102;28;20221;-81
2021/12/09 01:40:22;;;;;;;6.93;6.25;;;3.40;99.90;;;;;;5058908;28;20208;-81
2021/12/09 01:42:49;;;;;;;9.23;7.63;;;3.50;99.90;;;;;;5058763;28;20210;-80
2021/12/09 01:45:16;;;;;;;9.25;7.85;;;3.50;99.90;;;;;;5059034;28;20232;-81
2021/12/09 01:47:44;;;;;;;10.57;8.30;;;3.60;99.90;;;;;;5058665;28;20217;-79
2021/12/09 01:50:12;;;;;;;10.30;8.75;;;3.60;99.90;;;;;;5058608;28;20200;-78
2021/12/09 01:52:38;;;;;;;14.80;9.13;;;3.60;99.90;;;;;;5058573;28;20210;-81
2021/12/09 01:55:08;;;;;;;10.73;8.57;;;3.60;99.90;;;;;;5058877;28;20225;-80
2021/12/09 01:57:35;;;;;;;11.77;9.10;;;3.60;99.90;;;;;;5057765;28;20244;-81
2021/12/09 02:00:03;;;;;;;10.80;9.57;;;3.60;99.90;;;;;;5058371;28;20620;-81
2021/12/09 02:02:30;;;;;;;10.73;9.63;;;3.60;99.90;;;;;;5058479;28;20206;-81
2021/12/09 02:04:58;;;;;;;11.68;9.40;;;3.60;99.90;;;;;;5058678;28;20226;-81
2021/12/09 02:07:25;;;;;;;10.55;8.93;;;3.60;99.90;;;;;;5058640;28;20211;-81
2021/12/09 02:09:52;;;;;;;10.75;9.77;;;3.70;99.90;;;;;;5058084;28;20215;-81
2021/12/09 02:12:18;;;;;;;11.07;9.85;;;3.70;99.90;;;;;;5058205;28;20209;-81
2021/12/09 02:14:47;;;;;;;13.57;11.02;;;3.70;99.90;;;;;;5058564;28;20225;-79
2021/12/09 02:17:14;;;;;;;11.50;10.45;;;3.70;99.90;;;;;;5058502;28;20200;-80
2021/12/09 02:19:43;;;;;;;11.35;9.73;;;3.60;99.90;;;;;;5058502;28;20209;-81
2021/12/09 02:22:13;;;;;;;12.38;10.50;;;3.60;99.90;;;;;;5058234;28;20194;-79
2021/12/09 02:24:41;;;;;;;14.10;10.73;;;3.60;99.90;;;;;;5058184;28;20231;-81
2021/12/09 02:27:09;;;;;;;12.38;10.35;;;3.60;99.90;;;;;;5058247;28;20209;-81
2021/12/09 02:29:37;;;;;;;12.73;10.30;;;3.60;99.90;;;;;;5057789;28;20204;-80
2021/12/09 02:32:04;;;;;;;11.25;10.18;;;3.70;99.90;;;;;;5057616;28;20643;-81
2021/12/09 02:34:31;;;;;;;10.63;9.60;;;3.60;99.90;;;;;;5058205;28;20232;-81
2021/12/09 02:36:58;;;;;;;11.75;8.70;;;3.70;99.90;;;;;;5057588;28;20210;-81
2021/12/09 02:39:26;;;;;;;11.85;9.02;;;3.50;99.90;;;;;;5057740;28;20675;-81
2021/12/09 02:41:52;;;;;;;10.18;9.23;;;3.30;99.90;;;;;;5057566;28;20210;-81
2021/12/09 02:44:21;;;;;;;12.23;8.63;;;3.00;99.90;;;;;;5057530;28;20238;-80
2021/12/09 02:46:50;;;;;;;10.25;7.75;;;2.90;99.90;;;;;;5057332;28;20198;-79
2021/12/09 02:49:19;;;;;;;9.98;6.35;;;2.90;99.90;;;;;;5057606;28;20205;-80
2021/12/09 02:51:48;;;;;;;11.95;7.50;;;2.80;99.90;;;;;;5057025;28;20194;-80
2021/12/09 02:54:16;;;;;;;11.50;6.80;;;2.80;99.90;;;;;;5057373;28;20225;-80
2021/12/09 02:56:45;;;;;;;7.13;6.30;;;2.80;99.90;;;;;;5057375;28;20201;-81
2021/12/09 02:59:12;;;;;;;6.63;5.85;;;2.70;99.90;;;;;;5057042;28;20214;-80
2021/12/09 03:01:46;;;;;;;5.25;4.88;;;2.70;99.90;;;;;;5056585;28;20226;-80
2021/12/09 03:04:13;;;;;;;9.32;6.35;;;2.70;99.90;;;;;;5056920;28;20234;-79
2021/12/09 03:06:42;;;;;;;7.70;5.32;;;2.70;99.90;;;;;;5057066;28;20206;-80
2021/12/09 03:09:10;;;;;;;7.97;6.07;;;2.70;99.90;;;;;;5056777;28;20231;-80
2021/12/09 03:11:38;;;;;;;5.97;5.10;;;2.70;99.90;;;;;;5056209;28;20714;-80
2021/12/09 03:14:07;;;;;;;6.95;5.90;;;2.70;99.90;;;;;;5056787;28;20223;-80
2021/12/09 03:16:33;;;;;;;7.40;5.85;;;2.70;99.90;;;;;;5056395;28;20232;-80
2021/12/09 03:19:03;;;;;;;11.57;6.15;;;2.70;99.90;;;;;;5056871;28;20207;-80
2021/12/09 03:21:33;;;;;;;6.70;6.07;;;2.70;99.90;;;;;;5056414;28;20222;-80
2021/12/09 03:24:01;;;;;;;9.50;5.90;;;2.70;99.90;;;;;;5056853;28;20234;-80
2021/12/09 03:26:32;;;;;;;6.70;5.35;;;2.70;99.90;;;;;;5056134;28;20198;-80
2021/12/09 03:29:03;;;;;;;8.25;4.70;;;2.70;99.90;;;;;;5056152;28;20209;-80
2021/12/09 03:31:31;;;;;;;7.80;6.47;;;2.60;99.90;;;;;;5056042;28;20192;-79
2021/12/09 03:33:59;;;;;;;10.48;6.28;;;2.70;99.90;;;;;;5056240;28;20248;-80
2021/12/09 03:36:28;;;;;;;13.85;7.43;;;2.60;99.90;;;;;;5055857;28;20589;-80
2021/12/09 03:38:55;;;;;;;8.50;5.07;;;2.60;99.90;;;;;;5056278;28;20255;-80
2021/12/09 03:41:22;;;;;;;9.43;5.70;;;2.60;99.90;;;;;;5055922;28;20575;-78
2021/12/09 03:43:48;;;;;;;8.25;6.32;;;2.60;99.90;;;;;;5056182;28;20225;-80
2021/12/09 03:46:16;;;;;;;11.25;7.50;;;2.70;99.90;;;;;;5055934;28;20206;-80
2021/12/09 03:48:44;;;;;;;8.60;6.65;;;2.70;99.90;;;;;;5056657;28;20210;-80
2021/12/09 03:51:11;;;;;;;9.00;6.53;;;2.70;99.90;;;;;;5056977;28;20198;-79
2021/12/09 03:53:38;;;;;;;11.55;6.32;;;2.70;99.90;;;;;;5070875;28;20214;-78
2021/12/09 03:56:05;;;;;;;8.13;6.70;;;2.70;99.90;;;;;;5071423;28;20203;-79
2021/12/09 03:58:32;;;;;;;12.98;7.47;;;2.70;99.90;;;;;;5060750;28;20205;-80
2021/12/09 04:00:59;;;;;;;6.90;6.20;;;2.70;99.90;;;;;;5056589;28;20598;-80
2021/12/09 04:03:26;;;;;;;10.82;6.10;;;2.70;99.90;;;;;;5059962;28;20206;-78
2021/12/09 04:05:54;;;;;;;11.07;6.63;;;2.70;99.90;;;;;;5070369;28;20210;-77
2021/12/09 04:08:21;;;;;;;8.20;6.65;;;2.70;99.90;;;;;;5071074;28;20215;-78
2021/12/09 04:10:49;;;;;;;9.18;5.50;;;2.80;99.90;;;;;;5058091;28;20204;-78
2021/12/09 04:13:16;;;;;;;7.30;5.40;;;2.70;99.90;;;;;;5057347;28;20208;-80
2021/12/09 04:15:44;;;;;;;8.85;5.93;;;2.70;99.90;;;;;;5061684;28;20239;-78
2021/12/09 04:18:11;;;;;;;8.60;5.00;;;2.80;99.90;;;;;;5071048;28;20664;-77
2021/12/09 04:20:38;;;;;;;6.13;5.45;;;2.80;99.90;;;;;;5070094;28;20202;-80
2021/12/09 04:23:07;;;;;;;7.70;5.82;;;2.70;99.90;;;;;;5061930;28;20210;-79
2021/12/09 04:25:35;;;;;;;5.28;4.57;;;2.70;99.90;;;;;;5059986;28;20241;-79
2021/12/09 04:28:02;;;;;;;4.28;3.63;;;2.70;99.90;;;;;;5060511;28;20577;-80
2021/12/09 04:30:29;;;;;;;8.38;5.07;;;2.60;99.90;;;;;;5059307;28;20205;-80
2021/12/09 04:32:56;;;;;;;8.93;4.45;;;2.60;99.90;;;;;;5060159;28;20210;-80
2021/12/09 04:35:23;;;;;;;6.20;4.70;;;2.60;99.90;;;;;;5059545;28;20224;-79
2021/12/09 04:37:50;;;;;;;8.00;5.32;;;2.60;99.90;;;;;;5059726;28;20210;-80
2021/12/09 04:40:18;;;;;;;5.40;3.70;;;2.60;99.90;;;;;;5059692;28;20206;-80
2021/12/09 04:42:45;;;;;;;5.90;4.00;;;2.60;99.90;;;;;;5058741;28;20620;-80
2021/12/09 04:45:12;;;;;;;9.23;4.95;;;2.60;99.90;;;;;;5059057;28;20234;-80
2021/12/09 04:47:40;;;;;;;10.85;5.32;;;2.70;99.90;;;;;;5059202;28;20566;-80
2021/12/09 04:50:09;;;;;;;5.20;4.65;;;2.70;99.90;;;;;;5059375;28;20619;-79
2021/12/09 04:52:36;;;;;;;5.72;5.05;;;2.70;99.90;;;;;;5059287;28;20206;-79
2021/12/09 04:55:03;;;;;;;11.00;4.75;;;2.80;99.90;;;;;;5059681;28;20390;-79
2021/12/09 04:57:31;;;;;;;12.27;3.97;;;2.80;99.90;;;;;;5059191;28;20206;-80
2021/12/09 04:59:58;;;;;;;8.50;5.05;;;2.80;99.90;;;;;;5059078;28;20211;-80
2021/12/09 05:02:30;;;;;;;12.05;4.63;;;2.80;99.90;;;;;;5058679;28;20202;-80
2021/12/09 05:04:57;;;;;;;8.02;4.57;;;2.80;99.90;;;;;;5058839;28;20222;-80
2021/12/09 05:07:24;;;;;;;6.63;4.90;;;2.80;99.90;;;;;;5060523;28;20223;-80
2021/12/09 05:09:52;;;;;;;6.07;5.47;;;2.80;99.90;;;;;;5058410;28;20209;-80
2021/12/09 05:12:19;;;;;;;13.63;4.95;;;2.80;99.90;;;;;;5058302;28;20229;-80
2021/12/09 05:14:48;;;;;;;7.55;4.53;;;2.90;99.90;;;;;;5058769;28;20624;-80
2021/12/09 05:17:15;;;;;;;7.15;4.72;;;2.90;99.90;;;;;;5058909;28;20232;-80
2021/12/09 05:19:42;;;;;;;5.28;4.88;;;3.10;99.90;;;;;;5058316;28;20214;-80
2021/12/09 05:22:09;;;;;;;5.35;4.32;;;3.30;99.90;;;;;;5058562;28;20200;-80
2021/12/09 05:24:37;;;;;;;6.53;4.80;;;3.50;99.90;;;;;;5058496;28;20225;-79
2021/12/09 05:27:06;;;;;;;4.38;4.00;;;3.50;99.90;;;;;;5058255;28;20239;-79
2021/12/09 05:29:38;;;;;;;8.27;4.75;;;3.60;99.90;;;;;;5059049;28;20212;-80
2021/12/09 05:32:14;;;;;;;8.90;3.90;;;3.80;99.90;;;;;;5057577;28;20269;-80
2021/12/09 05:34:44;;;;;;;6.80;3.95;;;3.80;99.90;;;;;;5057553;28;20224;-80
2021/12/09 05:37:14;;;;;;;5.43;4.75;;;3.90;99.90;;;;;;5058420;28;20309;-80
2021/12/09 05:39:41;;;;;;;6.45;4.55;;;4.00;99.90;;;;;;5058623;28;20204;-79
2021/12/09 05:42:10;;;;;;;8.98;4.63;;;4.00;99.90;;;;;;5057106;28;20208;-80
2021/12/09 05:44:37;;;;;;;4.80;4.43;;;3.90;99.90;;;;;;5058398;28;20233;-79
2021/12/09 05:47:06;;;;;;;9.70;4.95;;;3.70;99.90;;;;;;5057813;28;20206;-80
2021/12/09 05:49:33;;;;;;;12.98;4.20;;;3.70;99.90;;;;;;5057938;28;20202;-80
2021/12/09 05:52:00;;;;;;;6.15;4.57;;;3.70;99.90;;;;;;5057583;28;20201;-80
2021/12/09 05:54:27;;;;;;;6.47;3.97;;;3.70;99.90;;;;;;5058259;28;20226;-80
2021/12/09 05:56:54;;;;;;;8.43;4.07;;;3.70;99.90;;;;;;5037256;28;20205;-80
2021/12/09 05:59:21;;;;;;;6.40;4.75;;;3.50;99.90;;;;;;5045016;28;20212;-79
2021/12/09 06:01:48;;;;;;;5.43;4.75;;;3.30;99.90;;;;;;5058738;28;20211;-80
2021/12/09 06:04:16;;;;;;;6.30;4.30;;;3.20;99.90;;;;;;5058750;28;20238;-80
2021/12/09 06:06:43;;;;;;;5.90;4.88;;;3.20;99.90;;;;;;5059003;28;20310;-80
2021/12/09 06:09:11;;;;;;;8.05;4.47;;;3.10;99.90;;;;;;5057532;28;20215;-80
2021/12/09 06:11:39;;;;;;;8.75;4.40;;;3.00;99.90;;;;;;5057294;28;20698;-80
2021/12/09 06:14:09;;;;;;;8.55;5.78;;;3.10;99.90;;;;;;5057631;28;20606;-80
2021/12/09 06:16:36;;;;;;;10.93;4.88;;;3.20;99.90;;;;;;5058220;28;20219;-80
2021/12/09 06:19:04;;;;;;;8.35;4.15;;;3.30;99.90;;;;;;5057675;28;20401;-80
2021/12/09 06:21:32;;;;;;;5.55;4.60;;;3.30;99.90;;;;;;5057329;28;20215;-80
2021/12/09 06:24:02;;;;;;;4.93;4.13;;;3.40;99.90;;;;;;5056879;28;20231;-80
2021/12/09 06:26:30;;;;;;;5.50;4.65;;;3.30;99.90;;;;;;5057168;28;20206;-79
2021/12/09 06:28:58;;;;;;;6.68;4.55;;;3.20;99.90;;;;;;5057310;28;20206;-80
2021/12/09 06:31:25;;;;;;;7.53;4.75;;;3.20;99.90;;;;;;5057243;28;20218;-80
2021/12/09 06:36:20;;;;;;;6.20;4.50;;;3.10;99.90;;;;;;5046116;28;20224;-81
2021/12/09 06:38:49;;;;;;;5.65;4.40;;;3.10;99.90;;;;;;5064557;28;20202;-81
2021/12/09 06:41:15;;;;;;;6.90;4.80;;;2.90;99.90;;;;;;5068239;28;20213;-81
2021/12/09 06:43:42;;;;;;;5.25;4.47;;;2.80;99.90;;;;;;5067318;28;20205;-81
2021/12/09 06:46:12;;;;;;;4.93;4.45;;;2.70;99.90;;;;;;5046614;28;20227;-80
2021/12/09 06:48:39;;;;;;;8.60;4.35;;;2.70;99.90;;;;;;5047737;28;20219;-81
2021/12/09 06:51:06;;;;;;;8.88;4.97;;;2.60;99.90;;;;;;5036537;28;20275;-80
2021/12/09 06:53:34;;;;;;;4.50;4.10;;;2.60;99.90;;;;;;5032438;28;20213;-80
2021/12/09 06:56:04;;;;;;;10.40;5.85;;;2.60;99.90;;;;;;5044480;28;20226;-80
2021/12/09 06:58:30;;;;;;;8.60;5.47;;;2.60;99.90;;;;;;5051589;28;20302;-80
2021/12/09 07:01:00;;;;;;;8.05;4.70;;;2.60;99.90;;;;;;5043665;28;20263;-81
2021/12/09 07:03:27;;;;;;;6.95;5.03;;;2.60;99.90;;;;;;5028598;28;20207;-81
2021/12/09 07:05:56;;;;;;;6.30;5.20;;;2.60;99.90;;;;;;5036753;28;20235;-80
2021/12/09 07:08:23;;;;;;;6.28;5.68;;;2.70;99.90;;;;;;5047845;28;20231;-80
2021/12/09 07:10:51;;;;;;;5.93;5.00;;;2.80;99.90;;;;;;5043275;28;20288;-79
2021/12/09 07:13:19;;;;;;;10.98;5.57;;;2.90;99.90;;;;;;5029113;28;20269;-81
2021/12/09 07:15:46;;;;;;;5.55;5.05;;;2.90;99.90;;;;;;5039872;28;20216;-81
2021/12/09 07:18:13;;;;;;;6.85;6.18;;;2.90;99.90;;;;;;5044688;28;20204;-83
2021/12/09 07:20:40;;;;;;;5.68;5.15;;;2.90;99.90;;;;;;5047706;28;20203;-81
2021/12/09 07:23:07;;;;;;;6.78;4.90;;;3.10;99.90;;;;;;5044264;28;20267;-80
2021/12/09 07:25:33;;;;;;;6.35;5.05;;;3.10;99.90;;;;;;5037854;28;20223;-81
2021/12/09 07:28:00;;;;;;;9.70;5.60;;;3.10;99.90;;;;;;5045156;28;20211;-81
2021/12/09 07:30:29;;;;;;;5.15;4.38;;;3.20;99.90;;;;;;5027806;28;20214;-81
2021/12/09 07:32:56;;;;;;;4.85;4.45;;;3.20;99.90;;;;;;5028503;28;20207;-83
2021/12/09 07:35:26;;;;;;;14.90;5.75;;;3.30;99.90;;;;;;5047067;28;20241;-83
2021/12/09 07:37:52;;;;;;;7.00;4.80;;;3.20;99.90;;;;;;5050289;28;20212;-80
2021/12/09 07:40:20;;;;;;;6.72;4.55;;;3.30;99.90;;;;;;5017847;28;20192;-79
2021/12/09 07:42:48;;;;;;;6.22;4.32;;;3.20;99.90;;;;;;5044735;28;20194;-80
2021/12/09 07:45:15;;;;;;;4.78;4.38;;;3.20;99.90;;;;;;5053569;28;20234;-81
2021/12/09 07:47:44;;;;;;;5.50;4.30;;;3.20;99.90;;;;;;5032726;28;20216;-79
2021/12/09 07:50:14;;;;;;;5.75;4.90;;;3.30;99.90;;;;;;5021418;28;20203;-79
2021/12/09 07:52:41;;;;;;;4.25;3.83;;;3.30;99.90;;;;;;5021324;28;20200;-79
2021/12/09 07:55:09;;;;;;;8.00;4.75;;;3.40;99.90;;;;;;5021553;28;20234;-79
2021/12/09 07:57:36;;;;;;;6.10;3.72;;;3.50;99.90;;;;;;5036246;28;20688;-80
2021/12/09 08:00:07;;;;;;;7.22;4.38;;;3.60;99.90;;;;;;5033282;28;20201;-79
2021/12/09 08:02:34;;;;;;;5.60;4.55;;;3.70;99.90;;;;;;5031451;28;20194;-79
2021/12/09 08:05:02;;;;;;;6.65;3.97;;;3.60;99.90;;;;;;5029062;28;20223;-79
2021/12/09 08:07:29;;;;;;;5.50;4.35;;;3.50;99.90;;;;;;5028175;28;20205;-80
2021/12/09 08:09:55;;;;;;;5.80;4.82;;;3.50;99.90;;;;;;5028736;28;20204;-79
2021/12/09 08:12:22;;;;;;;10.88;5.40;;;3.50;99.90;;;;;;5027688;28;20203;-79
2021/12/09 08:14:49;;;;;;;6.15;5.57;;;3.60;99.90;;;;;;5023711;28;20259;-79
2021/12/09 08:17:44;;;;;;;4.78;4.38;;;3.60;99.90;;;;;;5038655;28;20221;-79
2021/12/09 08:20:14;;;;;;;4.00;3.63;;;3.60;99.90;;;;;;5036026;28;20240;-78
2021/12/09 08:22:42;;;;;;;4.85;4.45;;;3.70;99.90;;;;;;5026177;28;20212;-79
2021/12/09 08:25:09;;;;;;;4.38;3.92;;;3.70;99.90;;;;;;5020039;28;20233;-79
2021/12/09 08:27:37;;;;;;;4.72;4.32;;;3.90;99.90;;;;;;5017955;28;20221;-78
2021/12/09 08:30:06;;;;;;;4.78;4.38;;;3.90;99.90;;;;;;5013644;28;20213;-79
2021/12/09 08:32:35;;;;;;;5.43;4.93;;;4.00;99.90;;;;;;5025050;28;20199;-78
2021/12/09 08:35:02;;;;;;;5.20;4.70;;;4.10;99.90;;;;;;5021327;28;20226;-79
2021/12/09 08:37:30;;;;;;;6.50;4.45;;;4.10;99.90;;;;;;5006976;28;20218;-79
2021/12/09 08:39:57;;;;;;;5.53;4.70;;;4.30;99.90;;;;;;5034991;28;20206;-79
2021/12/09 08:42:25;;;;;;;4.57;4.28;;;4.30;99.90;;;;;;5024830;28;20211;-79
2021/12/09 08:44:52;;;;;;;5.75;4.97;;;4.10;99.90;;;;;;5020595;28;20296;-79
2021/12/09 08:47:21;;;;;;;9.27;4.68;;;4.10;99.90;;;;;;5034005;28;20202;-79
2021/12/09 08:49:48;;;;;;;5.18;4.68;;;4.00;99.90;;;;;;5025881;28;20206;-82
2021/12/09 08:52:15;;;;;;;7.93;5.95;;;4.10;99.90;;;;;;5021385;28;20615;-81
2021/12/09 08:54:43;;;;;;;6.35;5.13;;;4.20;99.90;;;;;;5034932;28;20218;-78
2021/12/09 08:57:11;;;;;;;11.85;6.00;;;4.30;99.90;;;;;;5041603;28;20564;-80
2021/12/09 08:59:38;;;;;;;6.78;4.93;;;4.40;99.90;;;;;;5027663;28;20661;-79
2021/12/09 09:02:05;;;;;;;6.78;5.53;;;4.40;99.90;;;;;;5022273;28;20238;-78
2021/12/09 09:04:32;;;;;;;5.47;4.97;;;4.40;99.90;;;;;;5039827;28;20736;-78
2021/12/09 09:07:00;;;;;;;5.25;4.75;;;4.30;99.90;;;;;;5040204;28;20226;-79
2021/12/09 09:09:33;;;;;;;4.95;4.55;;;4.40;99.90;;;;;;5023527;28;20204;-79
2021/12/09 09:12:03;;;;;;;6.03;5.50;;;4.40;99.90;;;;;;5020317;28;20213;-82
2021/12/09 09:14:30;;;;;;;8.05;5.13;;;4.50;99.90;;;;;;5039294;28;20220;-82
2021/12/09 09:16:56;;;;;;;5.97;5.47;;;4.40;99.90;;;;;;5041960;28;20887;-83
2021/12/09 09:19:23;;;;;;;6.68;5.22;;;4.60;99.90;;;;;;5023705;28;20203;-84
2021/12/09 09:21:50;;;;;;;4.72;4.32;;;4.70;99.90;;;;;;5022206;28;20204;-81
2021/12/09 09:24:18;;;;;;;11.23;5.40;;;4.70;99.90;;;;;;5022967;28;20223;-82
2021/12/09 09:26:45;;;;;;;5.53;5.03;;;4.70;99.90;;;;;;5022382;28;20219;-81
2021/12/09 09:29:13;;;;;;;7.68;5.03;;;4.80;99.90;;;;;;5022224;28;20213;-81
2021/12/09 09:31:41;;;;;;;5.75;5.25;;;4.80;99.90;;;;;;5022187;28;20207;-82
2021/12/09 09:34:08;;;;;;;6.43;5.03;;;4.90;99.90;;;;;;5023350;28;20227;-81
2021/12/09 09:36:39;;;;;;;6.97;5.65;;;4.80;99.90;;;;;;5034469;28;20207;-81
2021/12/09 09:39:17;;;;;;;7.97;5.68;;;4.70;99.90;;;;;;5030177;28;20237;-81
2021/12/09 09:41:45;;;;;;;12.15;4.65;;;4.80;99.90;;;;;;5038260;28;20209;-82
2021/12/09 09:44:16;;;;;;;5.60;4.78;;;4.80;99.90;;;;;;5036446;28;20242;-82
2021/12/09 09:46:43;;;;;;;9.88;6.20;;;4.80;99.90;;;;;;5048914;28;20236;-81
2021/12/09 09:49:11;;;;;;;6.25;5.68;;;4.70;99.90;;;;;;5037749;28;20202;-81
2021/12/09 09:51:39;;;;;;;7.80;4.90;;;4.80;99.90;;;;;;5028887;28;20212;-81
2021/12/09 09:54:08;;;;;;;5.15;4.65;;;4.90;99.90;;;;;;5028437;28;20214;-81
2021/12/09 09:56:40;;;;;;;5.20;4.70;;;5.00;99.90;;;;;;5028504;28;20212;-81
2021/12/09 09:59:08;;;;;;;4.72;4.32;;;5.00;99.90;;;;;;5028740;28;20218;-81
2021/12/09 10:01:38;;;;;;;4.50;4.07;;;5.10;99.90;;;;;;5028701;28;20291;-82
2021/12/09 10:04:20;;;;;;;5.45;5.00;;;5.10;99.90;;;;;;5030817;28;20195;-81
2021/12/09 10:06:48;;;;;;;3.70;3.50;;;5.10;99.90;;;;;;5038332;28;20226;-81
2021/12/09 10:09:16;;;;;;;8.90;4.30;;;5.00;99.90;;;;;;5038018;28;20198;-81
2021/12/09 10:11:44;;;;;;;7.10;4.68;;;5.10;99.90;;;;;;5037794;28;20261;-81
2021/12/09 10:14:17;;;;;;;6.32;4.68;;;5.20;99.90;;;;;;5035428;28;20229;-81
2021/12/09 10:16:46;;;;;;;4.70;4.32;;;5.20;99.90;;;;;;5028934;28;20203;-81
2021/12/09 10:19:16;;;;;;;5.90;5.00;;;5.30;99.90;;;;;;5030449;28;20207;-81
2021/12/09 10:21:44;;;;;;;6.80;4.53;;;5.40;99.90;;;;;;5028253;28;20234;-81
2021/12/09 10:24:11;;;;;;;6.18;4.45;;;5.30;99.90;;;;;;5029060;28;20227;-81
2021/12/09 10:26:42;;;;;;;5.18;4.78;;;5.20;99.90;;;;;;5028783;28;20231;-81
2021/12/09 10:29:15;;;;;;;5.25;4.20;;;5.30;99.90;;;;;;5031664;28;20222;-81
2021/12/09 10:31:48;;;;;;;5.45;4.57;;;5.30;99.90;;;;;;5033336;28;20211;-81
2021/12/09 10:34:32;;;;;;;4.93;4.60;;;5.40;99.90;;;;;;5029445;28;20301;-81
2021/12/09 10:37:03;;;;;;;4.68;4.28;;;5.40;99.90;;;;;;5028427;28;20217;-81
2021/12/09 10:39:37;;;;;;;4.70;4.30;;;5.40;99.90;;;;;;5027808;28;20675;-81
2021/12/09 10:42:08;;;;;;;6.07;4.20;;;5.40;99.90;;;;;;5027632;28;20217;-81
2021/12/09 10:44:40;;;;;;;4.68;4.28;;;5.30;99.90;;;;;;5028799;28;20234;-81
2021/12/09 10:47:13;;;;;;;5.68;4.22;;;5.30;99.90;;;;;;5029146;28;20607;-81
2021/12/09 10:50:03;;;;;;;8.40;5.18;;;4.90;99.90;;;;;;5028504;28;20236;-81
2021/12/09 10:52:38;;;;;;;5.97;4.30;;;4.80;99.90;;;;;;5028231;28;20207;-81
2021/12/09 10:55:09;;;;;;;5.75;4.05;;;4.80;99.90;;;;;;5027967;28;20297;-81
2021/12/09 10:57:36;;;;;;;4.20;3.67;;;4.80;99.90;;;;;;5028239;28;20206;-81
2021/12/09 11:00:28;;;;;;;4.05;3.72;;;4.80;99.90;;;;;;5029671;28;20203;-81
2021/12/09 11:03:06;;;;;;;3.78;3.47;;;4.70;99.90;;;;;;5024366;28;20207;-81
2021/12/09 11:05:36;;;;;;;4.15;3.70;;;4.70;99.90;;;;;;5022480;28;20309;-83
2021/12/09 11:08:28;;;;;;;4.57;4.05;;;4.70;99.90;;;;;;5022664;28;20202;-85
2021/12/09 11:11:05;;;;;;;3.47;3.17;;;4.70;99.90;;;;;;5039374;28;20245;-85
2021/12/09 11:13:47;;;;;;;8.43;4.18;;;4.80;99.90;;;;;;5026292;28;20585;-81
2021/12/09 11:16:22;;;;;;;2.95;2.80;;;5.00;99.90;;;;;;5019968;28;20289;-81
2021/12/09 11:18:52;;;;;;;4.15;2.72;;;5.10;99.90;;;;;;5018844;28;20195;-81
2021/12/09 11:21:22;;;;;;;3.22;2.92;;;5.00;99.90;;;;;;5020956;28;20218;-84
2021/12/09 11:23:55;;;;;;;3.60;2.78;;;5.20;99.90;;;;;;5037194;28;20213;-85
2021/12/09 11:26:30;;;;;;;4.30;3.55;;;5.20;99.90;;;;;;5038946;28;20237;-85
2021/12/09 11:28:58;;;;;;;4.18;3.30;;;5.30;99.90;;;;;;5039021;28;20212;-85
2021/12/09 11:31:29;;;;;;;2.80;2.60;;;5.30;99.90;;;;;;5037408;28;20238;-84
2021/12/09 11:34:01;;;;;;;4.07;3.35;;;5.50;99.90;;;;;;5020594;28;20469;-85
2021/12/09 11:36:42;;;;;;;3.30;3.03;;;5.50;99.90;;;;;;5020171;28;20203;-85
2021/12/09 11:39:14;;;;;;;3.58;2.50;;;5.60;99.90;;;;;;5019588;28;20216;-85
2021/12/09 11:41:42;;;;;;;3.42;3.10;;;5.50;99.90;;;;;;5020628;28;20805;-85
2021/12/09 11:44:11;;;;;;;3.55;2.95;;;5.50;99.90;;;;;;5026129;28;20227;-86
2021/12/09 11:46:39;;;;;;;5.10;4.18;;;5.40;99.90;;;;;;5036986;28;20221;-85
2021/12/09 11:49:10;;;;;;;2.83;2.63;;;5.60;99.90;;;;;;5030533;28;20606;-83
2021/12/09 11:51:37;;;;;;;2.40;2.30;;;5.80;99.90;;;;;;5025260;28;20218;-83
2021/12/09 11:54:07;;;;;;;3.35;3.05;;;5.80;99.90;;;;;;5046785;28;20211;-85
2021/12/09 11:56:42;;;;;;;2.97;2.78;;;5.60;99.90;;;;;;5040126;28;20206;-86
2021/12/09 11:59:40;;;;;;;2.80;2.60;;;5.80;99.90;;;;;;5027222;28;20237;-86
2021/12/09 12:11:37;;;;;;;3.08;2.88;;;6.80;99.90;;;;;;5036611;28;20218;-83
2021/12/09 12:14:12;;;;;;;6.13;2.78;;;6.80;99.90;;;;;;5040776;28;20261;-83
2021/12/09 12:16:59;;;;;;;2.75;2.55;;;6.50;99.90;;;;;;5036086;28;20206;-83
2021/12/09 12:19:53;;;;;;;3.33;2.33;;;6.40;99.90;;;;;;5024941;28;20241;-83
2021/12/09 12:28:44;;;;;;;2.85;2.20;;;6.90;99.90;;;;;;5026724;28;20206;-83
2021/12/09 12:31:45;;;;;;;2.90;2.70;;;8.00;99.90;;;;;;5025267;28;20191;-83
2021/12/09 12:34:39;;;;;;;2.55;1.88;;;9.20;99.90;;;;;;5032264;28;20238;-83
2021/12/09 12:37:19;;;;;;;2.25;2.10;;;9.70;99.90;;;;;;5045369;28;20226;-84
2021/12/09 12:40:07;;;;;;;3.72;1.98;;;9.40;99.90;;;;;;5042199;28;20202;-84
2021/12/09 12:42:50;;;;;;;4.18;2.30;;;9.40;99.90;;;;;;5049278;28;20202;-84
2021/12/09 12:45:46;;;;;;;3.20;2.25;;;9.20;99.90;;;;;;5030859;28;20238;-82
2021/12/09 12:48:57;;;;;;;2.58;2.22;;;8.60;99.90;;;;;;5031003;28;20246;-83
2021/12/09 12:51:29;;;;;;;4.53;2.20;;;8.10;99.90;;;;;;5033703;28;20198;-83
2021/12/09 12:53:58;;;;;;;2.85;2.10;;;7.80;99.90;;;;;;5043684;28;20278;-83
2021/12/09 12:56:31;;;;;;;1.80;1.70;;;7.90;99.90;;;;;;5028642;28;20213;-83
2021/12/09 12:59:33;;;;;;;1.90;1.80;;;8.00;99.90;;;;;;5035444;28;20691;-83
2021/12/09 13:02:17;;;;;;;2.65;2.17;;;8.20;99.90;;;;;;4966141;29;20213;-82
2021/12/09 13:04:56;;;;;;;2.15;2.00;;;8.50;99.90;;;;;;4953144;29;20288;-83
2021/12/09 13:07:33;;;;;;;2.90;1.80;;;8.80;99.90;;;;;;5010696;28;20229;-83
2021/12/09 13:11:03;;;;;;;3.53;2.22;;;9.10;99.90;;;;;;5046888;28;20519;-87
2021/12/09 13:13:43;;;;;;;2.50;2.30;;;9.30;99.90;;;;;;5038964;28;20205;-85
2021/12/09 13:16:16;;;;;;;2.58;2.25;;;9.30;99.90;;;;;;5040937;28;20222;-85
2021/12/09 13:21:46;;;;;;;1.52;1.42;;;9.20;99.90;;;;;;5010836;28;20203;-84
2021/12/09 13:24:31;;;;;;;1.40;1.30;;;9.00;99.90;;;;;;5045672;28;20232;-84
2021/12/09 13:33:09;;;;;;;1.90;1.75;;;9.20;99.80;;;;;;5035477;28;20344;-83
2021/12/09 13:35:57;;;;;;;3.45;1.70;;;9.20;99.70;;;;;;5036696;28;20194;-82
2021/12/09 13:47:33;;;;;;;8.73;2.63;;;7.10;99.90;;;;;;5157458;27;20204;-82
2021/12/09 13:50:43;;;;;;;2.33;2.00;;;6.60;99.90;;;;;;5142915;27;20218;-85
2021/12/09 13:55:55;;;;;;;2.58;2.05;;;6.60;99.90;;;;;;5133653;27;20205;-80